This is the latest recevied weather packets stored in our database for station/object IZ1HMT-3. If no packets are shown the sender has not sent any weather packets the latest 10 day(s).
| Time | Temp. | Humidity | Pressure | Rain* | Wind** | Luminosity | Snow |
|---|---|---|---|---|---|---|---|
| 1787398642 | 31.67° C | 42% | 1014.3 hPa | - | - | - | - |
| 1787398038 | 31.11° C | 43% | 1014.3 hPa | - | - | - | - |
| 1787397433 | 31.11° C | 44% | 1014.3 hPa | - | - | - | - |
| 1787396829 | 31.11° C | 45% | 1014.3 hPa | - | - | - | - |
| 1787396225 | 30.56° C | 46% | 1014.3 hPa | - | - | - | - |
| 1787395614 | 31.11° C | 45% | 1014.2 hPa | - | - | - | - |
| 1787395010 | 31.11° C | 45% | 1014.2 hPa | - | - | - | - |
| 1787394406 | 31.11° C | 45% | 1014.2 hPa | - | - | - | - |
| 1787393802 | 31.11° C | 44% | 1014.2 hPa | - | - | - | - |
| 1787393198 | 31.67° C | 44% | 1014.1 hPa | - | - | - | - |
| 1787392593 | 32.78° C | 42% | 1014 hPa | - | - | - | - |
| 1787391989 | 33.89° C | 38% | 1013.9 hPa | - | - | - | - |
| 1787391385 | 36.11° C | 32% | 1013.8 hPa | - | - | - | - |
| 1787390780 | 37.22° C | 31% | 1013.8 hPa | - | - | - | - |
| 1787390177 | 37.78° C | 31% | 1013.7 hPa | - | - | - | - |
| 1787388968 | 38.89° C | 31% | 1013.4 hPa | - | - | - | - |
| 1787388364 | 38.33° C | 31% | 1013.4 hPa | - | - | - | - |
| 1787387759 | 38.89° C | 31% | 1013.3 hPa | - | - | - | - |
| 1787387155 | 38.89° C | 32% | 1013.2 hPa | - | - | - | - |
| 1787386550 | 39.44° C | 31% | 1013 hPa | - | - | - | - |
| 1787385946 | 38.33° C | 32% | 1012.9 hPa | - | - | - | - |
| 1787385347 | 38.33° C | 33% | 1012.9 hPa | - | - | - | - |
| 1787383529 | 38.33° C | 36% | 1012.9 hPa | - | - | - | - |
| 1787382320 | 36.67° C | 40% | 1012.8 hPa | - | - | - | - |
| 1787381717 | 34.44° C | 40% | 1012.7 hPa | - | - | - | - |
* Rain since midnight (hover to see other rain measurements)
** Current wind speed in m/s (hover to see current wind gust speed)